createdAt,value
2018-12-20T00:01:02.760Z,3.67
2018-12-20T00:03:30.955Z,3.57
2018-12-20T00:05:59.149Z,3.63
2018-12-20T00:08:27.282Z,3.83
2018-12-20T00:10:55.457Z,4.43
2018-12-20T00:13:23.749Z,3.63
2018-12-20T00:15:51.859Z,3.97
2018-12-20T00:18:19.980Z,4.53
2018-12-20T00:20:48.085Z,4.33
2018-12-20T00:23:16.193Z,4.10
2018-12-20T00:25:44.399Z,4.50
2018-12-20T00:28:12.898Z,4.27
2018-12-20T00:30:41.047Z,4.13
2018-12-20T00:33:09.398Z,4.20
2018-12-20T00:35:37.782Z,4.00
2018-12-20T00:38:05.987Z,3.47
2018-12-20T00:40:34.205Z,4.83
2018-12-20T00:43:02.338Z,6.07
2018-12-20T00:45:30.444Z,4.83
2018-12-20T00:47:58.565Z,5.20
2018-12-20T00:50:26.695Z,3.57
2018-12-20T00:52:54.926Z,4.40
2018-12-20T00:55:23.163Z,5.07
2018-12-20T00:57:51.417Z,4.43
2018-12-20T01:00:19.876Z,4.00
2018-12-20T01:02:55.056Z,4.30
2018-12-20T01:05:18.312Z,3.97
2018-12-20T01:07:46.497Z,4.87
2018-12-20T01:10:14.611Z,4.33
2018-12-20T01:12:42.836Z,4.60
2018-12-20T01:15:11.051Z,4.10
2018-12-20T01:17:39.168Z,4.70
2018-12-20T01:20:08.857Z,4.37
2018-12-20T01:22:37.056Z,4.63
2018-12-20T01:25:05.248Z,5.00
2018-12-20T01:27:33.373Z,5.00
2018-12-20T01:30:01.501Z,4.80
2018-12-20T01:32:29.766Z,4.83
2018-12-20T01:34:57.958Z,4.53
2018-12-20T01:37:26.086Z,5.77
2018-12-20T01:39:54.301Z,4.60
2018-12-20T01:42:22.578Z,4.77
2018-12-20T01:44:53.627Z,5.20
2018-12-20T01:47:20.895Z,4.90
2018-12-20T01:49:52.127Z,4.83
2018-12-20T01:52:20.295Z,4.83
2018-12-20T01:54:48.612Z,5.77
2018-12-20T01:57:16.810Z,4.73
2018-12-20T01:59:45.044Z,5.00
2018-12-20T02:02:13.218Z,3.80
2018-12-20T02:04:41.333Z,5.00
2018-12-20T02:07:09.440Z,5.53
2018-12-20T02:09:37.582Z,4.40
2018-12-20T02:12:05.965Z,4.60
2018-12-20T02:14:34.241Z,4.03
2018-12-20T02:17:02.416Z,4.50
2018-12-20T02:19:30.722Z,4.20
2018-12-20T02:21:58.850Z,3.93
2018-12-20T02:24:26.968Z,3.93
2018-12-20T02:26:55.133Z,3.67
2018-12-20T02:29:23.373Z,3.90
2018-12-20T02:31:51.651Z,3.50
2018-12-20T02:34:19.932Z,3.47
2018-12-20T02:36:48.357Z,3.80
2018-12-20T02:39:16.694Z,3.60
2018-12-20T02:41:44.952Z,4.30
2018-12-20T02:44:13.075Z,3.63
2018-12-20T02:46:41.354Z,3.43
2018-12-20T02:49:09.584Z,3.93
2018-12-20T02:51:37.826Z,3.40
2018-12-20T02:54:06.023Z,3.63
2018-12-20T02:56:34.327Z,3.97
2018-12-20T02:59:02.672Z,3.50
2018-12-20T03:01:30.842Z,3.87
2018-12-20T03:03:58.948Z,4.30
2018-12-20T03:06:27.058Z,4.13
2018-12-20T03:08:55.279Z,4.40
2018-12-20T03:11:23.464Z,4.67
2018-12-20T03:13:51.702Z,4.73
2018-12-20T03:16:19.914Z,4.80
2018-12-20T03:18:48.114Z,4.50
2018-12-20T03:21:16.278Z,4.67
2018-12-20T03:23:44.533Z,5.40
2018-12-20T03:26:12.724Z,4.67
2018-12-20T03:28:40.951Z,4.73
2018-12-20T03:31:09.204Z,4.50
2018-12-20T03:33:37.686Z,4.40
2018-12-20T03:36:05.979Z,5.00
2018-12-20T03:38:34.185Z,5.33
2018-12-20T03:41:02.368Z,4.33
2018-12-20T03:43:30.716Z,4.20
2018-12-20T03:45:58.891Z,3.90
2018-12-20T03:48:27.010Z,3.33
2018-12-20T03:50:55.483Z,3.93
2018-12-20T03:53:23.766Z,4.20
2018-12-20T03:55:52.304Z,3.53
2018-12-20T03:58:20.412Z,3.93
2018-12-20T04:00:48.518Z,3.93
2018-12-20T04:03:16.859Z,3.83
2018-12-20T04:05:45.278Z,3.47
2018-12-20T04:08:13.538Z,3.23
2018-12-20T04:10:41.666Z,2.70
2018-12-20T04:13:09.787Z,2.93
2018-12-20T04:15:38.253Z,3.60
2018-12-20T04:18:06.842Z,3.00
2018-12-20T04:20:35.209Z,3.07
2018-12-20T04:23:03.415Z,3.50
2018-12-20T04:25:31.717Z,2.93
2018-12-20T04:28:00.096Z,2.67
2018-12-20T04:30:28.456Z,3.23
2018-12-20T04:32:56.744Z,3.47
2018-12-20T04:35:24.933Z,3.20
2018-12-20T04:37:53.267Z,3.40
2018-12-20T04:40:21.564Z,3.80
2018-12-20T04:42:49.940Z,3.40
2018-12-20T04:45:18.182Z,3.37
2018-12-20T04:47:46.289Z,3.60
2018-12-20T04:50:15.130Z,3.10
2018-12-20T04:52:43.368Z,3.33
2018-12-20T04:55:11.597Z,3.40
2018-12-20T04:57:40.076Z,3.40
2018-12-20T05:00:09.601Z,3.37
2018-12-20T05:02:37.868Z,2.90
2018-12-20T05:05:06.315Z,3.07
2018-12-20T05:07:34.621Z,3.20
2018-12-20T05:10:02.746Z,2.93
2018-12-20T05:12:31.132Z,2.63
2018-12-20T05:14:59.535Z,2.93
2018-12-20T05:17:27.833Z,2.73
2018-12-20T05:19:56.029Z,2.83
2018-12-20T05:22:24.180Z,3.10
2018-12-20T05:24:52.304Z,2.87
2018-12-20T05:27:20.491Z,2.57
2018-12-20T05:29:48.681Z,2.40
2018-12-20T05:32:16.918Z,2.50
2018-12-20T05:34:45.172Z,2.53
2018-12-20T05:37:13.380Z,2.67
2018-12-20T05:39:41.611Z,2.73
2018-12-20T05:42:22.788Z,2.70
2018-12-20T05:44:51.126Z,2.40
2018-12-20T05:47:19.442Z,2.40
2018-12-20T05:49:47.670Z,2.63
2018-12-20T05:52:15.897Z,2.83
2018-12-20T05:54:44.002Z,2.33
2018-12-20T05:57:12.240Z,2.50
2018-12-20T05:59:40.469Z,2.27
2018-12-20T06:02:08.826Z,1.70
2018-12-20T06:04:37.234Z,2.17
2018-12-20T06:07:05.618Z,2.70
2018-12-20T06:09:33.891Z,2.73
2018-12-20T06:12:02.327Z,2.33
2018-12-20T06:14:30.766Z,1.97
2018-12-20T06:16:59.037Z,2.50
2018-12-20T06:19:27.348Z,2.37
2018-12-20T06:21:55.723Z,2.43
2018-12-20T06:24:23.921Z,2.37
2018-12-20T06:26:52.046Z,2.17
2018-12-20T06:29:20.161Z,2.07
2018-12-20T06:31:48.279Z,2.50
2018-12-20T06:34:16.399Z,2.10
2018-12-20T06:36:44.506Z,2.60
2018-12-20T06:39:12.626Z,2.53
2018-12-20T06:41:42.708Z,2.10
2018-12-20T06:44:10.801Z,2.23
2018-12-20T06:46:40.899Z,2.30
2018-12-20T06:49:09.006Z,2.30
2018-12-20T06:51:37.118Z,1.93
2018-12-20T06:54:05.220Z,2.20
2018-12-20T06:56:33.332Z,1.83
2018-12-20T06:59:01.452Z,2.10
2018-12-20T07:01:29.573Z,1.97
2018-12-20T07:03:57.675Z,1.97
2018-12-20T07:06:25.800Z,2.10
2018-12-20T07:08:53.917Z,1.87
2018-12-20T07:11:22.048Z,2.03
2018-12-20T07:13:50.152Z,1.80
2018-12-20T07:16:18.266Z,1.93
2018-12-20T07:18:46.364Z,2.33
2018-12-20T07:21:14.514Z,1.70
2018-12-20T07:23:42.618Z,1.83
2018-12-20T07:26:10.742Z,1.70
2018-12-20T07:28:38.853Z,1.63
2018-12-20T07:31:06.964Z,1.93
2018-12-20T07:33:35.094Z,1.50
2018-12-20T07:36:03.215Z,1.97
2018-12-20T07:38:31.433Z,1.47
2018-12-20T07:40:59.586Z,1.67
2018-12-20T07:43:27.683Z,1.57
2018-12-20T07:45:55.818Z,1.53
2018-12-20T07:48:31.853Z,1.47
2018-12-20T07:50:54.176Z,1.73
2018-12-20T07:53:22.277Z,1.10
2018-12-20T07:55:50.628Z,1.20
2018-12-20T07:58:18.756Z,1.13
2018-12-20T08:00:46.877Z,0.87
2018-12-20T08:03:14.995Z,1.10
2018-12-20T08:05:43.203Z,1.07
2018-12-20T08:08:11.319Z,1.23
2018-12-20T08:10:39.443Z,1.10
2018-12-20T08:13:07.562Z,1.00
2018-12-20T08:15:35.689Z,1.33
2018-12-20T08:18:03.810Z,1.60
2018-12-20T08:20:31.923Z,0.90
2018-12-20T08:23:00.036Z,1.20
2018-12-20T08:25:28.154Z,0.90
2018-12-20T08:27:56.279Z,1.00
2018-12-20T08:30:24.393Z,1.23
2018-12-20T08:32:52.573Z,1.40
2018-12-20T08:35:20.748Z,1.30
2018-12-20T08:37:48.869Z,1.50
2018-12-20T08:40:16.983Z,1.40
2018-12-20T08:42:45.096Z,1.10
2018-12-20T08:45:13.238Z,1.10
2018-12-20T08:47:41.361Z,1.70
2018-12-20T08:50:09.474Z,1.40
2018-12-20T08:52:37.600Z,1.30
2018-12-20T08:55:05.784Z,1.67
2018-12-20T08:57:33.905Z,1.70
2018-12-20T09:00:02.016Z,1.57
2018-12-20T09:02:30.145Z,1.20
2018-12-20T09:04:58.262Z,1.10
2018-12-20T09:07:26.416Z,1.20
2018-12-20T09:09:54.525Z,1.00
2018-12-20T09:12:22.668Z,1.20
2018-12-20T09:14:50.780Z,1.10
2018-12-20T09:17:18.900Z,5.43
2018-12-20T09:19:47.005Z,4.60
2018-12-20T09:22:15.125Z,4.50
2018-12-20T09:24:43.239Z,2.13
2018-12-20T09:27:11.356Z,1.40
2018-12-20T09:29:39.459Z,1.00
2018-12-20T09:32:07.586Z,1.10
2018-12-20T09:34:35.713Z,1.20
2018-12-20T09:37:03.831Z,1.43
2018-12-20T09:39:31.933Z,1.13
2018-12-20T09:42:00.226Z,1.00
2018-12-20T09:44:28.331Z,1.40
2018-12-20T09:46:58.436Z,1.00
2018-12-20T09:49:26.535Z,1.00
2018-12-20T09:51:54.673Z,1.17
2018-12-20T09:54:22.793Z,0.83
2018-12-20T09:56:50.910Z,1.07
2018-12-20T09:59:19.020Z,1.17
2018-12-20T10:01:47.134Z,1.27
2018-12-20T10:04:15.256Z,1.10
2018-12-20T10:06:43.382Z,1.00
2018-12-20T10:09:11.479Z,0.80
2018-12-20T10:11:39.597Z,1.00
2018-12-20T10:14:07.699Z,1.00
2018-12-20T10:16:35.819Z,2.23
2018-12-20T10:19:03.933Z,2.50
2018-12-20T10:21:32.078Z,1.97
2018-12-20T10:24:00.188Z,1.27
2018-12-20T10:26:28.310Z,0.93
2018-12-20T10:28:56.413Z,1.00
2018-12-20T10:31:24.557Z,0.90
2018-12-20T10:33:52.671Z,1.27
2018-12-20T10:36:20.775Z,1.60
2018-12-20T10:38:48.899Z,2.30
2018-12-20T10:41:17.023Z,2.00
2018-12-20T10:43:45.156Z,2.47
2018-12-20T10:46:13.272Z,2.20
2018-12-20T10:48:41.404Z,1.20
2018-12-20T10:51:09.523Z,1.80
2018-12-20T10:53:37.639Z,2.80
2018-12-20T10:56:05.761Z,2.43
2018-12-20T10:58:33.883Z,1.80
2018-12-20T11:01:07.451Z,1.70
2018-12-20T11:03:41.004Z,1.73
2018-12-20T11:06:11.102Z,2.40
2018-12-20T11:08:41.218Z,1.40
2018-12-20T11:11:11.303Z,2.13
2018-12-20T11:13:39.419Z,1.23
2018-12-20T11:16:07.521Z,1.30
2018-12-20T11:18:36.270Z,1.80
2018-12-20T11:21:04.377Z,1.10
2018-12-20T11:23:32.498Z,1.37
2018-12-20T11:26:00.611Z,1.83
2018-12-20T11:28:28.740Z,2.07
2018-12-20T11:30:56.855Z,1.40
2018-12-20T11:33:24.971Z,4.07
2018-12-20T11:35:53.083Z,2.23
2018-12-20T11:38:21.206Z,1.10
2018-12-20T11:40:49.317Z,0.87
2018-12-20T11:43:17.443Z,1.23
2018-12-20T11:45:45.548Z,1.43
2018-12-20T11:48:13.665Z,1.00
2018-12-20T11:50:41.761Z,1.40
2018-12-20T11:53:09.885Z,0.80
2018-12-20T11:55:38.008Z,0.80
2018-12-20T11:58:06.138Z,1.17
2018-12-20T12:00:36.209Z,1.10
2018-12-20T12:03:04.491Z,1.00
2018-12-20T12:05:32.619Z,0.77
2018-12-20T12:08:00.739Z,1.00
2018-12-20T12:10:28.851Z,1.40
2018-12-20T12:12:56.989Z,1.47
2018-12-20T12:15:26.524Z,1.00
2018-12-20T12:17:54.852Z,1.27
2018-12-20T12:20:22.957Z,1.20
2018-12-20T12:22:51.085Z,1.20
2018-12-20T12:25:19.256Z,1.50
2018-12-20T12:27:47.371Z,1.20
2018-12-20T12:30:15.481Z,1.27
2018-12-20T12:32:43.616Z,1.10
2018-12-20T12:35:11.716Z,0.90
2018-12-20T12:37:39.829Z,0.97
2018-12-20T12:40:08.622Z,1.20
2018-12-20T12:42:36.760Z,0.90
2018-12-20T12:45:05.693Z,1.17
2018-12-20T12:50:36.490Z,1.13
2018-12-20T12:53:04.618Z,0.87
2018-12-20T12:55:32.732Z,1.20
2018-12-20T12:58:04.590Z,1.07
2018-12-20T13:00:30.994Z,1.07
2018-12-20T13:02:59.115Z,0.70
2018-12-20T13:05:27.333Z,1.47
2018-12-20T13:07:55.462Z,1.60
2018-12-20T13:10:23.580Z,1.20
2018-12-20T13:12:51.700Z,1.63
2018-12-20T13:15:19.801Z,1.40
2018-12-20T13:17:47.925Z,1.47
2018-12-20T13:20:16.818Z,1.27
2018-12-20T13:22:44.936Z,1.17
2018-12-20T13:25:13.050Z,1.30
2018-12-20T13:27:41.161Z,1.20
2018-12-20T13:30:10.337Z,1.33
2018-12-20T13:32:38.456Z,0.90
2018-12-20T13:35:06.572Z,1.30
2018-12-20T13:37:34.678Z,1.50
2018-12-20T13:40:02.799Z,1.50
2018-12-20T13:42:30.905Z,1.37
2018-12-20T13:44:59.027Z,1.70
2018-12-20T13:47:27.131Z,1.80
2018-12-20T13:49:55.274Z,1.37
2018-12-20T13:52:23.368Z,1.43
2018-12-20T13:54:51.483Z,1.13
2018-12-20T13:57:19.590Z,1.40
2018-12-20T13:59:47.696Z,1.37
2018-12-20T14:02:15.817Z,1.43
2018-12-20T14:04:43.931Z,1.40
2018-12-20T14:07:12.038Z,1.70
2018-12-20T14:09:40.157Z,1.80
2018-12-20T14:12:08.260Z,2.70
2018-12-20T14:14:36.377Z,3.23
2018-12-20T14:17:04.481Z,2.40
2018-12-20T14:19:32.592Z,2.20
2018-12-20T14:22:00.698Z,1.70
2018-12-20T14:24:28.804Z,1.60
2018-12-20T14:26:56.909Z,1.80
2018-12-20T14:29:25.042Z,1.53
2018-12-20T14:31:53.138Z,1.70
2018-12-20T14:34:21.267Z,1.43
2018-12-20T14:36:49.365Z,2.83
2018-12-20T14:39:17.468Z,1.90
2018-12-20T14:41:45.574Z,2.20
2018-12-20T14:44:13.680Z,2.57
2018-12-20T14:46:41.785Z,1.87
2018-12-20T14:49:09.914Z,1.70
2018-12-20T14:51:38.027Z,1.63
2018-12-20T14:54:06.150Z,1.23
2018-12-20T14:56:34.382Z,1.67
2018-12-20T14:59:02.500Z,1.30
2018-12-20T15:01:30.621Z,1.60
2018-12-20T15:03:58.735Z,1.47
2018-12-20T15:06:26.846Z,1.47
2018-12-20T15:08:55.003Z,1.40
2018-12-20T15:11:23.136Z,1.50
2018-12-20T15:13:51.247Z,1.40
2018-12-20T15:16:19.367Z,1.23
2018-12-20T15:18:48.043Z,1.00
2018-12-20T15:21:16.347Z,1.60
2018-12-20T15:23:44.490Z,1.60
2018-12-20T15:26:12.623Z,2.60
2018-12-20T15:28:40.743Z,2.77
2018-12-20T15:31:08.865Z,1.60
2018-12-20T15:33:36.969Z,2.23
2018-12-20T15:36:05.121Z,1.90
2018-12-20T15:38:33.229Z,1.80
2018-12-20T15:41:02.118Z,1.83
2018-12-20T15:43:30.441Z,2.13
2018-12-20T15:45:59.597Z,1.40
2018-12-20T15:48:27.717Z,1.43
2018-12-20T15:50:56.912Z,2.07
2018-12-20T15:53:25.129Z,2.57
2018-12-20T15:55:56.997Z,1.40
2018-12-20T15:58:25.127Z,2.60
2018-12-20T16:00:53.251Z,1.90
2018-12-20T16:03:21.466Z,1.60
2018-12-20T16:05:57.306Z,2.00
2018-12-20T16:08:28.291Z,1.57
2018-12-20T16:10:56.766Z,1.60
2018-12-20T16:13:25.179Z,1.57
2018-12-20T16:15:55.666Z,1.70
2018-12-20T16:18:24.630Z,1.63
2018-12-20T16:20:54.442Z,1.30
2018-12-20T16:23:23.984Z,1.70
2018-12-20T16:25:53.503Z,2.03
2018-12-20T16:28:21.990Z,1.33
2018-12-20T16:30:50.861Z,1.93
2018-12-20T16:33:20.306Z,2.20
2018-12-20T16:35:48.912Z,2.33
2018-12-20T16:38:17.858Z,2.50
2018-12-20T16:40:46.631Z,2.20
2018-12-20T16:43:16.177Z,2.07
2018-12-20T16:45:45.056Z,2.13
2018-12-20T16:48:15.692Z,2.20
2018-12-20T16:50:49.821Z,2.20
2018-12-20T16:53:18.944Z,1.90
2018-12-20T16:55:47.119Z,2.37
2018-12-20T16:58:16.596Z,2.60
2018-12-20T17:00:44.885Z,1.77
2018-12-20T17:03:13.030Z,1.37
2018-12-20T17:05:42.930Z,1.37
2018-12-20T17:08:16.002Z,1.77
2018-12-20T17:10:45.591Z,1.70
2018-12-20T17:13:19.275Z,1.97
2018-12-20T17:15:48.855Z,1.67
2018-12-20T17:18:17.447Z,1.60
2018-12-20T17:20:46.708Z,1.40
2018-12-20T17:23:14.827Z,1.27
2018-12-20T17:25:42.979Z,1.43
2018-12-20T17:28:11.195Z,1.17
2018-12-20T17:30:39.312Z,1.57
2018-12-20T17:33:25.749Z,2.07
2018-12-20T17:35:54.349Z,1.50
2018-12-20T17:38:22.461Z,1.80
2018-12-20T17:40:50.587Z,1.70
2018-12-20T17:43:18.694Z,2.13
2018-12-20T17:45:46.813Z,1.70
2018-12-20T17:48:14.964Z,2.70
2018-12-20T17:50:43.080Z,3.03
2018-12-20T17:53:11.226Z,2.87
2018-12-20T17:55:44.707Z,1.83
2018-12-20T17:58:09.471Z,1.70
2018-12-20T18:00:37.588Z,1.53
2018-12-20T18:03:05.711Z,1.20
2018-12-20T18:05:33.874Z,0.80
2018-12-20T18:08:01.983Z,0.90
2018-12-20T18:10:30.839Z,0.83
2018-12-20T18:12:59.164Z,0.90
2018-12-20T18:15:27.387Z,0.77
2018-12-20T18:17:55.546Z,0.90
2018-12-20T18:20:23.671Z,0.83
2018-12-20T18:22:51.785Z,2.30
2018-12-20T18:25:19.922Z,1.40
2018-12-20T18:27:48.079Z,1.20
2018-12-20T18:30:16.198Z,2.20
2018-12-20T18:32:44.307Z,1.03
2018-12-20T18:35:12.510Z,1.20
2018-12-20T18:37:40.615Z,1.50
2018-12-20T18:40:08.746Z,1.60
2018-12-20T18:42:36.854Z,2.30
2018-12-20T18:45:07.111Z,2.67
2018-12-20T18:47:35.290Z,2.93
2018-12-20T18:50:03.884Z,1.53
2018-12-20T18:52:32.016Z,1.40
2018-12-20T18:55:00.209Z,1.90
2018-12-20T18:57:28.331Z,1.53
2018-12-20T18:59:56.441Z,1.13
2018-12-20T19:02:24.565Z,1.27
2018-12-20T19:04:52.680Z,1.13
2018-12-20T19:07:20.803Z,1.63
2018-12-20T19:09:48.923Z,2.07
2018-12-20T19:12:17.139Z,2.40
2018-12-20T19:14:45.286Z,2.33
2018-12-20T19:17:13.423Z,1.67
2018-12-20T19:19:41.534Z,1.40
2018-12-20T19:22:09.704Z,1.47
2018-12-20T19:24:37.839Z,1.37
2018-12-20T19:27:05.981Z,2.10
2018-12-20T19:29:34.176Z,2.30
2018-12-20T19:32:02.304Z,3.03
2018-12-20T19:34:30.427Z,2.47
2018-12-20T19:36:58.592Z,3.73
2018-12-20T19:39:26.988Z,2.20
2018-12-20T19:41:57.110Z,1.90
2018-12-20T19:44:25.215Z,1.50
2018-12-20T19:46:53.382Z,1.63
2018-12-20T19:49:21.574Z,2.50
2018-12-20T19:51:49.726Z,2.13
2018-12-20T19:54:17.868Z,4.80
2018-12-20T19:56:46.045Z,7.67
2018-12-20T19:59:14.146Z,3.27
2018-12-20T20:01:42.278Z,4.00
2018-12-20T20:04:10.419Z,3.10
2018-12-20T20:06:38.544Z,2.30
2018-12-20T20:09:07.107Z,2.50
2018-12-20T20:11:35.228Z,2.23
2018-12-20T20:14:03.344Z,2.90
2018-12-20T20:16:31.502Z,3.60
2018-12-20T20:18:59.619Z,2.00
2018-12-20T20:21:27.737Z,2.60
2018-12-20T20:23:55.867Z,1.77
2018-12-20T20:26:23.993Z,2.87
2018-12-20T20:28:52.107Z,2.63
2018-12-20T20:31:20.218Z,2.80
2018-12-20T20:33:48.350Z,1.63
2018-12-20T20:36:16.480Z,2.07
2018-12-20T20:38:44.584Z,2.03
2018-12-20T20:41:12.714Z,1.20
2018-12-20T20:43:40.812Z,1.87
2018-12-20T20:46:08.930Z,1.87
2018-12-20T20:48:37.055Z,2.60
2018-12-20T20:51:05.163Z,2.67
2018-12-20T20:53:34.522Z,2.23
2018-12-20T20:56:02.913Z,1.60
2018-12-20T20:58:31.050Z,1.67
2018-12-20T21:00:59.204Z,1.63
2018-12-20T21:03:27.316Z,3.77
2018-12-20T21:05:55.438Z,2.60
2018-12-20T21:08:23.574Z,2.17
2018-12-20T21:10:51.692Z,1.83
2018-12-20T21:13:19.799Z,1.80
2018-12-20T21:15:47.906Z,2.10
2018-12-20T21:18:16.028Z,2.60
2018-12-20T21:20:44.137Z,1.93
2018-12-20T21:23:12.257Z,1.63
2018-12-20T21:25:40.447Z,1.80
2018-12-20T21:28:08.577Z,1.40
2018-12-20T21:30:36.683Z,1.40
2018-12-20T21:33:04.800Z,1.43
2018-12-20T21:35:32.901Z,1.17
2018-12-20T21:38:01.035Z,1.30
2018-12-20T21:40:29.140Z,1.10
2018-12-20T21:42:57.261Z,1.30
2018-12-20T21:45:25.371Z,1.53
2018-12-20T21:47:53.492Z,1.60
2018-12-20T21:50:21.587Z,1.43
2018-12-20T21:52:49.720Z,1.33
2018-12-20T21:55:17.838Z,1.50
2018-12-20T21:57:45.961Z,1.70
2018-12-20T22:00:14.077Z,1.50
2018-12-20T22:02:42.202Z,1.40
2018-12-20T22:05:10.317Z,1.67
2018-12-20T22:07:38.459Z,1.10
2018-12-20T22:10:07.011Z,1.30
2018-12-20T22:12:35.137Z,1.23
2018-12-20T22:15:03.247Z,1.27
2018-12-20T22:17:31.373Z,1.20
2018-12-20T22:19:59.491Z,1.30
2018-12-20T22:22:27.615Z,1.20
2018-12-20T22:24:55.735Z,1.40
2018-12-20T22:27:23.854Z,1.70
2018-12-20T22:29:51.968Z,0.97
2018-12-20T22:32:20.100Z,1.53
2018-12-20T22:34:48.213Z,1.20
2018-12-20T22:37:16.352Z,1.37
2018-12-20T22:39:44.487Z,1.57
2018-12-20T22:42:12.616Z,1.30
2018-12-20T22:44:40.730Z,1.27
2018-12-20T22:47:08.862Z,1.00
2018-12-20T22:49:37.064Z,1.10
2018-12-20T22:52:05.186Z,1.50
2018-12-20T22:54:33.295Z,1.07
2018-12-20T22:57:01.425Z,1.23
2018-12-20T22:59:29.542Z,1.37
2018-12-20T23:01:57.688Z,0.93
2018-12-20T23:04:25.898Z,1.10
2018-12-20T23:06:54.021Z,0.90
2018-12-20T23:09:22.140Z,0.90
2018-12-20T23:11:50.262Z,1.00
2018-12-20T23:14:18.381Z,1.40
2018-12-20T23:16:53.612Z,1.20
2018-12-20T23:19:16.639Z,1.23
2018-12-20T23:21:44.761Z,1.20
2018-12-20T23:24:12.900Z,0.90
2018-12-20T23:26:41.015Z,1.00
2018-12-20T23:29:09.148Z,1.20
2018-12-20T23:31:37.306Z,0.97
2018-12-20T23:34:05.524Z,1.10
2018-12-20T23:36:33.641Z,1.07
2018-12-20T23:39:01.774Z,1.30
2018-12-20T23:41:29.889Z,1.20
2018-12-20T23:43:58.027Z,1.10
2018-12-20T23:46:26.132Z,1.10
2018-12-20T23:48:54.257Z,1.20
2018-12-20T23:51:22.378Z,1.10
2018-12-20T23:53:50.505Z,1.10
2018-12-20T23:56:18.615Z,1.10
2018-12-20T23:58:46.740Z,1.07
